sensor_id;sensor_type;location;lat;lon;timestamp;P1;durP1;ratioP1;P2;durP2;ratioP2
14923;SDS011;7554;43.600;1.480;2022-09-09T00:00:18;4.77;;;1.60;;
14923;SDS011;7554;43.600;1.480;2022-09-09T00:02:50;4.70;;;1.70;;
14923;SDS011;7554;43.600;1.480;2022-09-09T00:05:27;7.03;;;1.40;;
14923;SDS011;7554;43.600;1.480;2022-09-09T00:08:00;6.50;;;1.40;;
14923;SDS011;7554;43.600;1.480;2022-09-09T00:10:34;5.83;;;1.60;;
14923;SDS011;7554;43.600;1.480;2022-09-09T00:13:10;11.23;;;2.03;;
14923;SDS011;7554;43.600;1.480;2022-09-09T00:15:44;6.37;;;1.37;;
14923;SDS011;7554;43.600;1.480;2022-09-09T00:18:18;4.23;;;1.70;;
14923;SDS011;7554;43.600;1.480;2022-09-09T00:20:52;4.83;;;1.60;;
14923;SDS011;7554;43.600;1.480;2022-09-09T00:23:25;6.13;;;1.53;;
14923;SDS011;7554;43.600;1.480;2022-09-09T00:25:59;4.40;;;1.73;;
14923;SDS011;7554;43.600;1.480;2022-09-09T00:28:33;5.43;;;1.47;;
14923;SDS011;7554;43.600;1.480;2022-09-09T00:31:09;7.17;;;1.80;;
14923;SDS011;7554;43.600;1.480;2022-09-09T00:33:39;6.27;;;1.93;;
14923;SDS011;7554;43.600;1.480;2022-09-09T00:36:09;4.37;;;1.50;;
14923;SDS011;7554;43.600;1.480;2022-09-09T00:38:42;3.53;;;1.50;;
14923;SDS011;7554;43.600;1.480;2022-09-09T00:41:17;4.13;;;1.27;;
14923;SDS011;7554;43.600;1.480;2022-09-09T00:43:51;4.90;;;1.57;;
14923;SDS011;7554;43.600;1.480;2022-09-09T00:46:49;3.83;;;1.20;;
14923;SDS011;7554;43.600;1.480;2022-09-09T00:49:46;5.17;;;1.40;;
14923;SDS011;7554;43.600;1.480;2022-09-09T00:52:29;3.27;;;1.40;;
14923;SDS011;7554;43.600;1.480;2022-09-09T00:55:04;6.83;;;1.63;;
14923;SDS011;7554;43.600;1.480;2022-09-09T00:57:41;4.77;;;1.90;;
14923;SDS011;7554;43.600;1.480;2022-09-09T01:00:19;6.97;;;1.53;;
14923;SDS011;7554;43.600;1.480;2022-09-09T01:02:52;5.47;;;1.53;;
14923;SDS011;7554;43.600;1.480;2022-09-09T01:05:30;5.80;;;1.67;;
14923;SDS011;7554;43.600;1.480;2022-09-09T01:08:02;5.50;;;1.53;;
14923;SDS011;7554;43.600;1.480;2022-09-09T01:10:41;5.90;;;1.57;;
14923;SDS011;7554;43.600;1.480;2022-09-09T01:13:17;3.90;;;1.60;;
14923;SDS011;7554;43.600;1.480;2022-09-09T01:15:49;6.27;;;1.53;;
14923;SDS011;7554;43.600;1.480;2022-09-09T01:18:19;7.63;;;1.67;;
14923;SDS011;7554;43.600;1.480;2022-09-09T01:20:51;4.57;;;1.30;;
14923;SDS011;7554;43.600;1.480;2022-09-09T01:23:30;3.00;;;1.40;;
14923;SDS011;7554;43.600;1.480;2022-09-09T01:26:26;3.63;;;1.43;;
14923;SDS011;7554;43.600;1.480;2022-09-09T01:28:57;3.87;;;1.40;;
14923;SDS011;7554;43.600;1.480;2022-09-09T01:31:26;3.83;;;1.27;;
14923;SDS011;7554;43.600;1.480;2022-09-09T01:33:56;5.53;;;1.50;;
14923;SDS011;7554;43.600;1.480;2022-09-09T01:36:26;5.00;;;1.37;;
14923;SDS011;7554;43.600;1.480;2022-09-09T01:38:59;4.03;;;1.77;;
14923;SDS011;7554;43.600;1.480;2022-09-09T01:41:28;2.73;;;1.33;;
14923;SDS011;7554;43.600;1.480;2022-09-09T01:43:56;4.97;;;1.93;;
14923;SDS011;7554;43.600;1.480;2022-09-09T01:46:23;6.27;;;1.50;;
14923;SDS011;7554;43.600;1.480;2022-09-09T01:48:52;5.00;;;1.47;;
14923;SDS011;7554;43.600;1.480;2022-09-09T01:51:21;3.33;;;1.40;;
14923;SDS011;7554;43.600;1.480;2022-09-09T01:53:49;3.67;;;1.60;;
14923;SDS011;7554;43.600;1.480;2022-09-09T01:56:20;9.20;;;1.57;;
14923;SDS011;7554;43.600;1.480;2022-09-09T01:59:01;6.73;;;1.33;;
14923;SDS011;7554;43.600;1.480;2022-09-09T02:01:47;3.17;;;1.30;;
14923;SDS011;7554;43.600;1.480;2022-09-09T02:04:30;6.00;;;1.30;;
14923;SDS011;7554;43.600;1.480;2022-09-09T02:07:07;6.57;;;1.40;;
14923;SDS011;7554;43.600;1.480;2022-09-09T02:09:47;4.70;;;1.23;;
14923;SDS011;7554;43.600;1.480;2022-09-09T02:12:18;3.37;;;1.30;;
14923;SDS011;7554;43.600;1.480;2022-09-09T02:14:52;5.83;;;1.40;;
14923;SDS011;7554;43.600;1.480;2022-09-09T02:17:24;4.40;;;1.23;;
14923;SDS011;7554;43.600;1.480;2022-09-09T02:19:57;3.67;;;1.33;;
14923;SDS011;7554;43.600;1.480;2022-09-09T02:22:29;5.10;;;1.40;;
14923;SDS011;7554;43.600;1.480;2022-09-09T02:25:00;7.13;;;1.50;;
14923;SDS011;7554;43.600;1.480;2022-09-09T02:27:28;5.63;;;1.50;;
14923;SDS011;7554;43.600;1.480;2022-09-09T02:29:57;3.33;;;1.10;;
14923;SDS011;7554;43.600;1.480;2022-09-09T02:32:27;4.83;;;1.37;;
14923;SDS011;7554;43.600;1.480;2022-09-09T02:34:57;5.67;;;1.07;;
14923;SDS011;7554;43.600;1.480;2022-09-09T02:37:27;2.30;;;1.20;;
14923;SDS011;7554;43.600;1.480;2022-09-09T02:39:58;3.33;;;1.40;;
14923;SDS011;7554;43.600;1.480;2022-09-09T02:42:25;5.50;;;1.37;;
14923;SDS011;7554;43.600;1.480;2022-09-09T02:44:53;2.23;;;0.90;;
14923;SDS011;7554;43.600;1.480;2022-09-09T02:47:24;4.10;;;1.10;;
14923;SDS011;7554;43.600;1.480;2022-09-09T02:50:02;1.97;;;1.00;;
14923;SDS011;7554;43.600;1.480;2022-09-09T02:52:40;3.03;;;1.27;;
14923;SDS011;7554;43.600;1.480;2022-09-09T02:55:16;3.53;;;1.40;;
14923;SDS011;7554;43.600;1.480;2022-09-09T02:57:49;7.67;;;1.40;;
14923;SDS011;7554;43.600;1.480;2022-09-09T03:00:22;3.67;;;1.30;;
14923;SDS011;7554;43.600;1.480;2022-09-09T03:02:52;3.10;;;1.20;;
14923;SDS011;7554;43.600;1.480;2022-09-09T03:05:20;7.20;;;1.43;;
14923;SDS011;7554;43.600;1.480;2022-09-09T03:07:47;3.40;;;1.10;;
14923;SDS011;7554;43.600;1.480;2022-09-09T03:10:15;2.70;;;1.20;;
14923;SDS011;7554;43.600;1.480;2022-09-09T03:12:43;3.80;;;1.30;;
14923;SDS011;7554;43.600;1.480;2022-09-09T03:15:10;4.30;;;1.07;;
14923;SDS011;7554;43.600;1.480;2022-09-09T03:17:38;4.03;;;1.10;;
14923;SDS011;7554;43.600;1.480;2022-09-09T03:20:07;4.20;;;1.20;;
14923;SDS011;7554;43.600;1.480;2022-09-09T03:22:35;4.80;;;1.10;;
14923;SDS011;7554;43.600;1.480;2022-09-09T03:25:02;3.73;;;1.30;;
14923;SDS011;7554;43.600;1.480;2022-09-09T03:27:30;5.03;;;1.37;;
14923;SDS011;7554;43.600;1.480;2022-09-09T03:29:58;3.40;;;1.23;;
14923;SDS011;7554;43.600;1.480;2022-09-09T03:32:28;4.00;;;1.10;;
14923;SDS011;7554;43.600;1.480;2022-09-09T03:34:56;3.07;;;1.13;;
14923;SDS011;7554;43.600;1.480;2022-09-09T03:37:25;4.40;;;1.30;;
14923;SDS011;7554;43.600;1.480;2022-09-09T03:39:52;5.33;;;1.13;;
14923;SDS011;7554;43.600;1.480;2022-09-09T03:42:20;6.37;;;1.57;;
14923;SDS011;7554;43.600;1.480;2022-09-09T03:44:48;4.53;;;1.10;;
14923;SDS011;7554;43.600;1.480;2022-09-09T03:47:16;3.37;;;1.30;;
14923;SDS011;7554;43.600;1.480;2022-09-09T03:49:44;3.27;;;1.03;;
14923;SDS011;7554;43.600;1.480;2022-09-09T03:52:12;5.47;;;1.10;;
14923;SDS011;7554;43.600;1.480;2022-09-09T03:54:41;3.47;;;1.13;;
14923;SDS011;7554;43.600;1.480;2022-09-09T03:57:08;5.57;;;1.40;;
14923;SDS011;7554;43.600;1.480;2022-09-09T03:59:37;6.23;;;1.40;;
14923;SDS011;7554;43.600;1.480;2022-09-09T04:02:04;3.03;;;0.97;;
14923;SDS011;7554;43.600;1.480;2022-09-09T04:04:32;4.23;;;1.53;;
14923;SDS011;7554;43.600;1.480;2022-09-09T04:06:59;2.27;;;1.20;;
14923;SDS011;7554;43.600;1.480;2022-09-09T04:09:26;3.53;;;1.20;;
14923;SDS011;7554;43.600;1.480;2022-09-09T04:11:55;2.57;;;1.17;;
14923;SDS011;7554;43.600;1.480;2022-09-09T04:14:22;5.30;;;1.20;;
14923;SDS011;7554;43.600;1.480;2022-09-09T04:16:54;4.03;;;1.40;;
14923;SDS011;7554;43.600;1.480;2022-09-09T04:19:22;3.47;;;1.30;;
14923;SDS011;7554;43.600;1.480;2022-09-09T04:21:50;2.17;;;1.03;;
14923;SDS011;7554;43.600;1.480;2022-09-09T04:24:17;3.57;;;1.00;;
14923;SDS011;7554;43.600;1.480;2022-09-09T04:26:45;2.37;;;1.20;;
14923;SDS011;7554;43.600;1.480;2022-09-09T04:29:14;3.73;;;1.30;;
14923;SDS011;7554;43.600;1.480;2022-09-09T04:31:41;4.80;;;1.33;;
14923;SDS011;7554;43.600;1.480;2022-09-09T04:34:09;4.97;;;1.20;;
14923;SDS011;7554;43.600;1.480;2022-09-09T04:36:37;4.13;;;1.20;;
14923;SDS011;7554;43.600;1.480;2022-09-09T04:39:05;3.83;;;1.10;;
14923;SDS011;7554;43.600;1.480;2022-09-09T04:41:32;3.70;;;1.30;;
14923;SDS011;7554;43.600;1.480;2022-09-09T04:44:03;2.17;;;0.90;;
14923;SDS011;7554;43.600;1.480;2022-09-09T04:46:31;3.83;;;1.03;;
14923;SDS011;7554;43.600;1.480;2022-09-09T04:48:59;3.07;;;0.90;;
14923;SDS011;7554;43.600;1.480;2022-09-09T04:51:26;2.17;;;1.00;;
14923;SDS011;7554;43.600;1.480;2022-09-09T04:53:56;5.23;;;1.17;;
14923;SDS011;7554;43.600;1.480;2022-09-09T04:56:24;4.07;;;1.03;;
14923;SDS011;7554;43.600;1.480;2022-09-09T04:58:53;2.93;;;1.07;;
14923;SDS011;7554;43.600;1.480;2022-09-09T05:01:21;3.23;;;1.10;;
14923;SDS011;7554;43.600;1.480;2022-09-09T05:03:51;5.97;;;1.17;;
14923;SDS011;7554;43.600;1.480;2022-09-09T05:06:19;4.53;;;1.33;;
14923;SDS011;7554;43.600;1.480;2022-09-09T05:08:47;3.90;;;1.20;;
14923;SDS011;7554;43.600;1.480;2022-09-09T05:11:15;3.37;;;1.10;;
14923;SDS011;7554;43.600;1.480;2022-09-09T05:13:43;4.67;;;1.10;;
14923;SDS011;7554;43.600;1.480;2022-09-09T05:16:11;6.50;;;1.23;;
14923;SDS011;7554;43.600;1.480;2022-09-09T05:18:39;3.33;;;1.20;;
14923;SDS011;7554;43.600;1.480;2022-09-09T05:21:09;3.77;;;1.50;;
14923;SDS011;7554;43.600;1.480;2022-09-09T05:23:37;3.93;;;1.53;;
14923;SDS011;7554;43.600;1.480;2022-09-09T05:26:05;2.10;;;1.07;;
14923;SDS011;7554;43.600;1.480;2022-09-09T05:28:34;2.63;;;1.10;;
14923;SDS011;7554;43.600;1.480;2022-09-09T05:31:02;3.13;;;1.30;;
14923;SDS011;7554;43.600;1.480;2022-09-09T05:33:33;3.03;;;1.30;;
14923;SDS011;7554;43.600;1.480;2022-09-09T05:36:01;2.77;;;1.20;;
14923;SDS011;7554;43.600;1.480;2022-09-09T05:38:31;3.30;;;1.37;;
14923;SDS011;7554;43.600;1.480;2022-09-09T05:40:59;5.37;;;1.60;;
14923;SDS011;7554;43.600;1.480;2022-09-09T05:43:28;1.90;;;1.40;;
14923;SDS011;7554;43.600;1.480;2022-09-09T05:46:00;5.30;;;1.60;;
14923;SDS011;7554;43.600;1.480;2022-09-09T05:48:29;5.37;;;1.67;;
14923;SDS011;7554;43.600;1.480;2022-09-09T05:50:57;4.10;;;1.60;;
14923;SDS011;7554;43.600;1.480;2022-09-09T05:53:25;6.00;;;1.80;;
14923;SDS011;7554;43.600;1.480;2022-09-09T05:56:01;7.63;;;1.80;;
14923;SDS011;7554;43.600;1.480;2022-09-09T05:58:29;4.40;;;1.80;;
14923;SDS011;7554;43.600;1.480;2022-09-09T06:01:00;3.40;;;1.60;;
14923;SDS011;7554;43.600;1.480;2022-09-09T06:03:29;5.50;;;2.00;;
14923;SDS011;7554;43.600;1.480;2022-09-09T06:05:57;2.80;;;1.60;;
14923;SDS011;7554;43.600;1.480;2022-09-09T06:08:25;5.17;;;2.17;;
14923;SDS011;7554;43.600;1.480;2022-09-09T06:10:53;5.73;;;2.47;;
14923;SDS011;7554;43.600;1.480;2022-09-09T06:13:29;4.57;;;1.90;;
14923;SDS011;7554;43.600;1.480;2022-09-09T06:15:57;3.17;;;1.90;;
14923;SDS011;7554;43.600;1.480;2022-09-09T06:18:24;3.63;;;1.90;;
14923;SDS011;7554;43.600;1.480;2022-09-09T06:20:56;5.43;;;2.07;;
14923;SDS011;7554;43.600;1.480;2022-09-09T06:23:24;4.60;;;2.10;;
14923;SDS011;7554;43.600;1.480;2022-09-09T06:25:59;5.70;;;2.00;;
14923;SDS011;7554;43.600;1.480;2022-09-09T06:28:32;4.57;;;1.97;;
14923;SDS011;7554;43.600;1.480;2022-09-09T06:31:00;6.97;;;2.30;;
14923;SDS011;7554;43.600;1.480;2022-09-09T06:33:30;6.40;;;2.30;;
14923;SDS011;7554;43.600;1.480;2022-09-09T06:36:00;4.83;;;2.10;;
14923;SDS011;7554;43.600;1.480;2022-09-09T06:38:28;5.80;;;2.27;;
14923;SDS011;7554;43.600;1.480;2022-09-09T06:40:57;5.97;;;2.33;;
14923;SDS011;7554;43.600;1.480;2022-09-09T06:43:27;5.27;;;2.70;;
14923;SDS011;7554;43.600;1.480;2022-09-09T06:45:57;4.33;;;2.00;;
14923;SDS011;7554;43.600;1.480;2022-09-09T06:48:25;3.93;;;1.90;;
14923;SDS011;7554;43.600;1.480;2022-09-09T06:51:00;4.57;;;2.10;;
14923;SDS011;7554;43.600;1.480;2022-09-09T06:53:28;4.37;;;2.03;;
14923;SDS011;7554;43.600;1.480;2022-09-09T06:55:59;3.53;;;1.90;;
14923;SDS011;7554;43.600;1.480;2022-09-09T06:58:27;3.10;;;1.67;;
14923;SDS011;7554;43.600;1.480;2022-09-09T07:01:03;4.97;;;1.87;;
14923;SDS011;7554;43.600;1.480;2022-09-09T07:03:30;3.33;;;1.83;;
14923;SDS011;7554;43.600;1.480;2022-09-09T07:05:58;5.00;;;1.90;;
14923;SDS011;7554;43.600;1.480;2022-09-09T07:08:26;2.93;;;1.60;;
14923;SDS011;7554;43.600;1.480;2022-09-09T07:10:54;4.90;;;1.70;;
14923;SDS011;7554;43.600;1.480;2022-09-09T07:13:27;3.80;;;1.73;;
14923;SDS011;7554;43.600;1.480;2022-09-09T07:15:55;5.53;;;2.07;;
14923;SDS011;7554;43.600;1.480;2022-09-09T07:18:30;5.33;;;1.77;;
14923;SDS011;7554;43.600;1.480;2022-09-09T07:20:58;4.90;;;2.00;;
14923;SDS011;7554;43.600;1.480;2022-09-09T07:23:26;4.77;;;1.60;;
14923;SDS011;7554;43.600;1.480;2022-09-09T07:25:53;5.80;;;1.70;;
14923;SDS011;7554;43.600;1.480;2022-09-09T07:28:21;5.83;;;1.87;;
14923;SDS011;7554;43.600;1.480;2022-09-09T07:30:52;3.23;;;1.63;;
14923;SDS011;7554;43.600;1.480;2022-09-09T07:33:20;3.67;;;1.47;;
14923;SDS011;7554;43.600;1.480;2022-09-09T07:35:49;4.07;;;1.67;;
14923;SDS011;7554;43.600;1.480;2022-09-09T07:38:17;5.97;;;1.97;;
14923;SDS011;7554;43.600;1.480;2022-09-09T07:40:44;5.47;;;1.63;;
14923;SDS011;7554;43.600;1.480;2022-09-09T07:43:12;4.53;;;1.80;;
14923;SDS011;7554;43.600;1.480;2022-09-09T07:45:41;5.40;;;2.00;;
14923;SDS011;7554;43.600;1.480;2022-09-09T07:48:08;5.40;;;1.50;;
14923;SDS011;7554;43.600;1.480;2022-09-09T07:50:36;6.13;;;2.00;;
14923;SDS011;7554;43.600;1.480;2022-09-09T07:53:06;3.43;;;1.80;;
14923;SDS011;7554;43.600;1.480;2022-09-09T07:55:33;4.87;;;1.80;;
14923;SDS011;7554;43.600;1.480;2022-09-09T07:58:00;4.53;;;1.90;;
14923;SDS011;7554;43.600;1.480;2022-09-09T08:00:28;4.57;;;1.80;;
14923;SDS011;7554;43.600;1.480;2022-09-09T08:02:55;4.77;;;1.90;;
14923;SDS011;7554;43.600;1.480;2022-09-09T08:05:22;6.83;;;2.00;;
14923;SDS011;7554;43.600;1.480;2022-09-09T08:07:50;5.93;;;2.13;;
14923;SDS011;7554;43.600;1.480;2022-09-09T08:10:19;3.73;;;1.90;;
14923;SDS011;7554;43.600;1.480;2022-09-09T08:12:46;4.63;;;2.37;;
14923;SDS011;7554;43.600;1.480;2022-09-09T08:15:14;5.37;;;2.20;;
14923;SDS011;7554;43.600;1.480;2022-09-09T08:17:41;5.77;;;2.60;;
14923;SDS011;7554;43.600;1.480;2022-09-09T08:20:09;4.50;;;2.23;;
14923;SDS011;7554;43.600;1.480;2022-09-09T08:22:36;7.27;;;2.40;;
14923;SDS011;7554;43.600;1.480;2022-09-09T08:25:04;5.53;;;2.47;;
14923;SDS011;7554;43.600;1.480;2022-09-09T08:27:35;4.07;;;2.40;;
14923;SDS011;7554;43.600;1.480;2022-09-09T08:30:02;7.93;;;2.63;;
14923;SDS011;7554;43.600;1.480;2022-09-09T08:32:30;6.27;;;2.50;;
14923;SDS011;7554;43.600;1.480;2022-09-09T08:34:58;4.13;;;2.23;;
14923;SDS011;7554;43.600;1.480;2022-09-09T08:37:25;6.10;;;2.30;;
14923;SDS011;7554;43.600;1.480;2022-09-09T08:39:52;8.33;;;2.57;;
14923;SDS011;7554;43.600;1.480;2022-09-09T08:42:25;12.20;;;2.40;;
14923;SDS011;7554;43.600;1.480;2022-09-09T08:45:12;6.63;;;2.57;;
14923;SDS011;7554;43.600;1.480;2022-09-09T08:47:50;6.17;;;2.20;;
14923;SDS011;7554;43.600;1.480;2022-09-09T08:50:27;5.67;;;2.10;;
14923;SDS011;7554;43.600;1.480;2022-09-09T08:53:00;5.50;;;2.00;;
14923;SDS011;7554;43.600;1.480;2022-09-09T08:55:33;6.10;;;2.10;;
14923;SDS011;7554;43.600;1.480;2022-09-09T08:58:09;6.10;;;2.20;;
14923;SDS011;7554;43.600;1.480;2022-09-09T09:00:42;23.57;;;6.47;;
14923;SDS011;7554;43.600;1.480;2022-09-09T09:03:23;9.17;;;2.60;;
14923;SDS011;7554;43.600;1.480;2022-09-09T09:05:59;5.17;;;2.10;;
14923;SDS011;7554;43.600;1.480;2022-09-09T09:08:34;3.80;;;1.60;;
14923;SDS011;7554;43.600;1.480;2022-09-09T09:11:07;6.83;;;2.27;;
14923;SDS011;7554;43.600;1.480;2022-09-09T09:13:35;6.60;;;2.20;;
14923;SDS011;7554;43.600;1.480;2022-09-09T09:16:12;3.57;;;2.00;;
14923;SDS011;7554;43.600;1.480;2022-09-09T09:18:47;6.30;;;1.97;;
14923;SDS011;7554;43.600;1.480;2022-09-09T09:21:17;5.80;;;1.43;;
14923;SDS011;7554;43.600;1.480;2022-09-09T09:23:51;6.87;;;1.40;;
14923;SDS011;7554;43.600;1.480;2022-09-09T09:26:23;3.47;;;1.57;;
14923;SDS011;7554;43.600;1.480;2022-09-09T09:28:54;3.57;;;1.40;;
14923;SDS011;7554;43.600;1.480;2022-09-09T09:31:25;5.00;;;2.10;;
14923;SDS011;7554;43.600;1.480;2022-09-09T09:33:53;3.33;;;1.70;;
14923;SDS011;7554;43.600;1.480;2022-09-09T09:36:24;6.90;;;2.00;;
14923;SDS011;7554;43.600;1.480;2022-09-09T09:39:00;4.03;;;1.87;;
14923;SDS011;7554;43.600;1.480;2022-09-09T09:41:31;4.70;;;1.40;;
14923;SDS011;7554;43.600;1.480;2022-09-09T09:44:01;5.57;;;1.53;;
14923;SDS011;7554;43.600;1.480;2022-09-09T09:46:31;2.93;;;1.57;;
14923;SDS011;7554;43.600;1.480;2022-09-09T09:48:59;5.10;;;1.53;;
14923;SDS011;7554;43.600;1.480;2022-09-09T09:51:27;6.07;;;1.63;;
14923;SDS011;7554;43.600;1.480;2022-09-09T09:54:07;3.60;;;1.53;;
14923;SDS011;7554;43.600;1.480;2022-09-09T09:56:41;3.43;;;1.40;;
14923;SDS011;7554;43.600;1.480;2022-09-09T09:59:19;5.30;;;1.50;;
14923;SDS011;7554;43.600;1.480;2022-09-09T10:01:49;7.40;;;1.57;;
14923;SDS011;7554;43.600;1.480;2022-09-09T10:04:18;7.70;;;1.60;;
14923;SDS011;7554;43.600;1.480;2022-09-09T10:06:48;4.13;;;1.60;;
14923;SDS011;7554;43.600;1.480;2022-09-09T10:09:20;3.50;;;1.80;;
14923;SDS011;7554;43.600;1.480;2022-09-09T10:11:51;3.93;;;1.73;;
14923;SDS011;7554;43.600;1.480;2022-09-09T10:14:25;3.47;;;1.60;;
14923;SDS011;7554;43.600;1.480;2022-09-09T10:17:06;5.07;;;2.10;;
14923;SDS011;7554;43.600;1.480;2022-09-09T10:19:38;4.47;;;1.80;;
14923;SDS011;7554;43.600;1.480;2022-09-09T10:22:18;4.40;;;2.07;;
14923;SDS011;7554;43.600;1.480;2022-09-09T10:27:55;8.90;;;2.23;;
14923;SDS011;7554;43.600;1.480;2022-09-09T10:30:52;6.77;;;2.30;;
14923;SDS011;7554;43.600;1.480;2022-09-09T10:33:34;3.87;;;2.33;;
14923;SDS011;7554;43.600;1.480;2022-09-09T10:36:12;3.77;;;1.90;;
14923;SDS011;7554;43.600;1.480;2022-09-09T10:38:44;3.23;;;2.00;;
14923;SDS011;7554;43.600;1.480;2022-09-09T10:41:18;5.73;;;2.07;;
14923;SDS011;7554;43.600;1.480;2022-09-09T10:47:00;4.03;;;1.70;;
14923;SDS011;7554;43.600;1.480;2022-09-09T10:52:47;3.97;;;1.50;;
14923;SDS011;7554;43.600;1.480;2022-09-09T10:55:24;4.03;;;1.87;;
14923;SDS011;7554;43.600;1.480;2022-09-09T10:57:55;5.80;;;1.60;;
14923;SDS011;7554;43.600;1.480;2022-09-09T11:00:25;5.23;;;1.77;;
14923;SDS011;7554;43.600;1.480;2022-09-09T11:03:01;4.40;;;1.50;;
14923;SDS011;7554;43.600;1.480;2022-09-09T11:05:35;6.00;;;1.43;;
14923;SDS011;7554;43.600;1.480;2022-09-09T11:08:10;6.20;;;1.87;;
14923;SDS011;7554;43.600;1.480;2022-09-09T11:10:41;4.20;;;1.93;;
14923;SDS011;7554;43.600;1.480;2022-09-09T11:13:18;3.23;;;1.60;;
14923;SDS011;7554;43.600;1.480;2022-09-09T11:15:52;4.63;;;1.70;;
14923;SDS011;7554;43.600;1.480;2022-09-09T11:18:26;5.27;;;1.80;;
14923;SDS011;7554;43.600;1.480;2022-09-09T11:21:00;4.27;;;1.40;;
14923;SDS011;7554;43.600;1.480;2022-09-09T11:23:32;3.67;;;1.40;;
14923;SDS011;7554;43.600;1.480;2022-09-09T11:26:07;4.83;;;1.40;;
14923;SDS011;7554;43.600;1.480;2022-09-09T11:28:42;4.13;;;1.20;;
14923;SDS011;7554;43.600;1.480;2022-09-09T11:31:30;3.70;;;1.50;;
14923;SDS011;7554;43.600;1.480;2022-09-09T11:34:12;5.70;;;1.83;;
14923;SDS011;7554;43.600;1.480;2022-09-09T11:37:00;5.77;;;2.77;;
14923;SDS011;7554;43.600;1.480;2022-09-09T11:39:54;7.03;;;2.40;;
14923;SDS011;7554;43.600;1.480;2022-09-09T11:42:36;4.83;;;2.13;;
14923;SDS011;7554;43.600;1.480;2022-09-09T11:45:10;5.23;;;2.20;;
14923;SDS011;7554;43.600;1.480;2022-09-09T11:47:51;3.53;;;1.70;;
14923;SDS011;7554;43.600;1.480;2022-09-09T11:53:19;4.87;;;1.50;;
14923;SDS011;7554;43.600;1.480;2022-09-09T11:56:00;4.83;;;1.63;;
14923;SDS011;7554;43.600;1.480;2022-09-09T11:58:31;5.17;;;1.90;;
14923;SDS011;7554;43.600;1.480;2022-09-09T12:01:14;5.77;;;1.53;;
14923;SDS011;7554;43.600;1.480;2022-09-09T12:04:26;3.53;;;1.87;;
14923;SDS011;7554;43.600;1.480;2022-09-09T12:07:00;5.03;;;1.77;;
14923;SDS011;7554;43.600;1.480;2022-09-09T12:09:37;5.77;;;1.97;;
14923;SDS011;7554;43.600;1.480;2022-09-09T12:12:23;4.63;;;1.50;;
14923;SDS011;7554;43.600;1.480;2022-09-09T12:14:59;4.77;;;1.90;;
14923;SDS011;7554;43.600;1.480;2022-09-09T12:17:29;5.73;;;1.60;;
14923;SDS011;7554;43.600;1.480;2022-09-09T12:20:03;6.33;;;1.50;;
14923;SDS011;7554;43.600;1.480;2022-09-09T12:22:41;5.20;;;1.40;;
14923;SDS011;7554;43.600;1.480;2022-09-09T12:25:21;6.67;;;1.40;;
14923;SDS011;7554;43.600;1.480;2022-09-09T12:28:02;5.50;;;1.43;;
14923;SDS011;7554;43.600;1.480;2022-09-09T12:30:36;4.87;;;1.43;;
14923;SDS011;7554;43.600;1.480;2022-09-09T12:33:13;5.27;;;1.80;;
14923;SDS011;7554;43.600;1.480;2022-09-09T12:35:44;3.40;;;1.27;;
14923;SDS011;7554;43.600;1.480;2022-09-09T12:38:17;4.10;;;1.47;;
14923;SDS011;7554;43.600;1.480;2022-09-09T12:40:56;3.63;;;1.50;;
14923;SDS011;7554;43.600;1.480;2022-09-09T12:43:25;7.60;;;1.43;;
14923;SDS011;7554;43.600;1.480;2022-09-09T12:45:54;6.30;;;1.80;;
14923;SDS011;7554;43.600;1.480;2022-09-09T12:48:27;7.60;;;1.80;;
14923;SDS011;7554;43.600;1.480;2022-09-09T12:50:58;5.70;;;1.53;;
14923;SDS011;7554;43.600;1.480;2022-09-09T12:53:28;5.70;;;1.63;;
14923;SDS011;7554;43.600;1.480;2022-09-09T12:56:01;6.73;;;1.83;;
14923;SDS011;7554;43.600;1.480;2022-09-09T12:58:32;4.13;;;1.40;;
14923;SDS011;7554;43.600;1.480;2022-09-09T13:01:00;2.60;;;1.50;;
14923;SDS011;7554;43.600;1.480;2022-09-09T13:03:30;6.37;;;1.63;;
14923;SDS011;7554;43.600;1.480;2022-09-09T13:05:59;5.33;;;1.40;;
14923;SDS011;7554;43.600;1.480;2022-09-09T13:08:38;6.73;;;1.30;;
14923;SDS011;7554;43.600;1.480;2022-09-09T13:11:09;5.10;;;1.30;;
14923;SDS011;7554;43.600;1.480;2022-09-09T13:13:41;5.03;;;1.33;;
14923;SDS011;7554;43.600;1.480;2022-09-09T13:16:18;8.00;;;1.60;;
14923;SDS011;7554;43.600;1.480;2022-09-09T13:18:48;5.83;;;1.50;;
14923;SDS011;7554;43.600;1.480;2022-09-09T13:21:16;3.97;;;1.20;;
14923;SDS011;7554;43.600;1.480;2022-09-09T13:23:48;8.53;;;1.50;;
14923;SDS011;7554;43.600;1.480;2022-09-09T13:26:22;5.67;;;1.30;;
14923;SDS011;7554;43.600;1.480;2022-09-09T13:28:52;9.10;;;1.30;;
14923;SDS011;7554;43.600;1.480;2022-09-09T13:31:21;4.27;;;1.50;;
14923;SDS011;7554;43.600;1.480;2022-09-09T13:33:52;3.50;;;1.07;;
14923;SDS011;7554;43.600;1.480;2022-09-09T13:36:27;8.43;;;1.80;;
14923;SDS011;7554;43.600;1.480;2022-09-09T13:38:57;9.30;;;1.50;;
14923;SDS011;7554;43.600;1.480;2022-09-09T13:41:28;6.10;;;1.77;;
14923;SDS011;7554;43.600;1.480;2022-09-09T13:43:59;7.90;;;1.60;;
14923;SDS011;7554;43.600;1.480;2022-09-09T13:46:31;7.97;;;1.63;;
14923;SDS011;7554;43.600;1.480;2022-09-09T13:49:01;4.57;;;1.63;;
14923;SDS011;7554;43.600;1.480;2022-09-09T13:51:44;6.23;;;1.50;;
14923;SDS011;7554;43.600;1.480;2022-09-09T13:54:14;5.90;;;1.60;;
14923;SDS011;7554;43.600;1.480;2022-09-09T13:56:45;4.03;;;1.73;;
14923;SDS011;7554;43.600;1.480;2022-09-09T13:59:15;9.10;;;1.67;;
14923;SDS011;7554;43.600;1.480;2022-09-09T14:01:44;6.83;;;2.03;;
14923;SDS011;7554;43.600;1.480;2022-09-09T14:04:12;6.83;;;1.73;;
14923;SDS011;7554;43.600;1.480;2022-09-09T14:06:41;8.83;;;1.87;;
14923;SDS011;7554;43.600;1.480;2022-09-09T14:09:10;8.00;;;1.60;;
14923;SDS011;7554;43.600;1.480;2022-09-09T14:11:40;9.67;;;1.70;;
14923;SDS011;7554;43.600;1.480;2022-09-09T14:14:09;2.83;;;1.60;;
14923;SDS011;7554;43.600;1.480;2022-09-09T14:16:36;3.90;;;1.43;;
14923;SDS011;7554;43.600;1.480;2022-09-09T14:19:04;3.00;;;1.20;;
14923;SDS011;7554;43.600;1.480;2022-09-09T14:21:31;6.00;;;1.53;;
14923;SDS011;7554;43.600;1.480;2022-09-09T14:23:58;5.83;;;1.50;;
14923;SDS011;7554;43.600;1.480;2022-09-09T14:26:26;8.27;;;1.40;;
14923;SDS011;7554;43.600;1.480;2022-09-09T14:28:54;5.93;;;1.53;;
14923;SDS011;7554;43.600;1.480;2022-09-09T14:31:22;5.07;;;1.80;;
14923;SDS011;7554;43.600;1.480;2022-09-09T14:33:50;5.40;;;2.07;;
14923;SDS011;7554;43.600;1.480;2022-09-09T14:36:18;5.97;;;1.27;;
14923;SDS011;7554;43.600;1.480;2022-09-09T14:38:45;4.90;;;1.70;;
14923;SDS011;7554;43.600;1.480;2022-09-09T14:41:14;4.93;;;1.40;;
14923;SDS011;7554;43.600;1.480;2022-09-09T14:43:43;6.73;;;1.30;;
14923;SDS011;7554;43.600;1.480;2022-09-09T14:46:11;7.10;;;1.50;;
14923;SDS011;7554;43.600;1.480;2022-09-09T14:48:41;7.17;;;1.57;;
14923;SDS011;7554;43.600;1.480;2022-09-09T14:51:10;5.77;;;1.70;;
14923;SDS011;7554;43.600;1.480;2022-09-09T14:53:40;7.43;;;1.47;;
14923;SDS011;7554;43.600;1.480;2022-09-09T14:56:09;5.40;;;1.87;;
14923;SDS011;7554;43.600;1.480;2022-09-09T14:58:37;6.10;;;1.40;;
14923;SDS011;7554;43.600;1.480;2022-09-09T15:01:05;5.43;;;1.43;;
14923;SDS011;7554;43.600;1.480;2022-09-09T15:03:35;4.13;;;1.60;;
14923;SDS011;7554;43.600;1.480;2022-09-09T15:06:07;4.30;;;1.40;;
14923;SDS011;7554;43.600;1.480;2022-09-09T15:08:37;5.13;;;1.67;;
14923;SDS011;7554;43.600;1.480;2022-09-09T15:11:05;4.13;;;1.20;;
14923;SDS011;7554;43.600;1.480;2022-09-09T15:13:33;4.47;;;1.57;;
14923;SDS011;7554;43.600;1.480;2022-09-09T15:16:05;4.90;;;1.80;;
14923;SDS011;7554;43.600;1.480;2022-09-09T15:18:34;3.77;;;1.30;;
14923;SDS011;7554;43.600;1.480;2022-09-09T15:21:09;5.50;;;1.47;;
14923;SDS011;7554;43.600;1.480;2022-09-09T15:23:37;5.70;;;1.50;;
14923;SDS011;7554;43.600;1.480;2022-09-09T15:26:05;11.03;;;1.57;;
14923;SDS011;7554;43.600;1.480;2022-09-09T15:28:33;4.00;;;1.40;;
14923;SDS011;7554;43.600;1.480;2022-09-09T15:31:04;6.13;;;1.67;;
14923;SDS011;7554;43.600;1.480;2022-09-09T15:33:34;6.57;;;1.90;;
14923;SDS011;7554;43.600;1.480;2022-09-09T15:36:13;6.27;;;1.50;;
14923;SDS011;7554;43.600;1.480;2022-09-09T15:38:41;4.00;;;1.20;;